createdAt,value
2019-01-09T00:01:00.938Z,2.03
2019-01-09T00:03:41.722Z,2.10
2019-01-09T00:06:24.262Z,2.77
2019-01-09T00:09:06.498Z,2.00
2019-01-09T00:11:47.867Z,2.57
2019-01-09T00:14:28.786Z,2.43
2019-01-09T00:17:10.126Z,2.43
2019-01-09T00:19:51.498Z,2.93
2019-01-09T00:22:32.875Z,3.03
2019-01-09T00:25:13.548Z,2.63
2019-01-09T00:27:54.240Z,2.60
2019-01-09T00:30:34.836Z,2.40
2019-01-09T00:33:15.925Z,2.30
2019-01-09T00:35:57.264Z,3.10
2019-01-09T00:38:40.568Z,2.03
2019-01-09T00:41:21.794Z,2.43
2019-01-09T00:44:02.851Z,1.87
2019-01-09T00:46:44.207Z,2.13
2019-01-09T00:49:24.902Z,1.70
2019-01-09T00:52:06.509Z,1.90
2019-01-09T00:54:47.364Z,1.87
2019-01-09T00:57:28.243Z,2.40
2019-01-09T01:00:09.164Z,1.80
2019-01-09T01:02:49.789Z,2.53
2019-01-09T01:05:30.551Z,2.13
2019-01-09T01:08:11.347Z,2.10
2019-01-09T01:10:52.545Z,1.93
2019-01-09T01:13:33.243Z,2.63
2019-01-09T01:16:14.404Z,2.83
2019-01-09T01:18:55.602Z,2.40
2019-01-09T01:21:36.336Z,3.00
2019-01-09T01:24:16.980Z,3.20
2019-01-09T01:26:58.562Z,3.20
2019-01-09T01:29:40.059Z,3.40
2019-01-09T01:32:21.562Z,2.67
2019-01-09T01:35:02.297Z,2.90
2019-01-09T01:37:43.914Z,2.63
2019-01-09T01:40:25.510Z,3.40
2019-01-09T01:43:07.094Z,2.50
2019-01-09T01:45:47.758Z,2.70
2019-01-09T01:48:28.989Z,2.73
2019-01-09T01:51:10.569Z,2.50
2019-01-09T01:53:51.315Z,3.17
2019-01-09T01:56:32.138Z,3.20
2019-01-09T01:59:12.874Z,2.77
2019-01-09T02:01:54.435Z,3.50
2019-01-09T02:04:35.107Z,3.47
2019-01-09T02:07:16.900Z,3.27
2019-01-09T02:10:09.659Z,2.90
2019-01-09T02:13:17.231Z,3.07
2019-01-09T02:15:58.812Z,3.33
2019-01-09T02:18:40.370Z,3.87
2019-01-09T02:21:21.906Z,3.70
2019-01-09T02:24:02.747Z,3.57
2019-01-09T02:26:44.238Z,3.37
2019-01-09T02:29:25.918Z,3.37
2019-01-09T02:32:07.190Z,3.37
2019-01-09T02:34:48.732Z,3.23
2019-01-09T02:37:29.408Z,3.70
2019-01-09T02:40:11.018Z,2.80
2019-01-09T02:42:52.550Z,2.83
2019-01-09T02:45:33.266Z,2.27
2019-01-09T02:48:14.395Z,1.10
2019-01-09T02:50:55.978Z,1.53
2019-01-09T02:53:37.482Z,1.23
2019-01-09T02:56:19.035Z,1.40
2019-01-09T02:59:00.381Z,1.73
2019-01-09T03:01:41.986Z,1.40
2019-01-09T03:04:23.329Z,1.97
2019-01-09T03:07:04.521Z,2.13
2019-01-09T03:09:45.893Z,1.77
2019-01-09T03:12:26.998Z,2.43
2019-01-09T03:15:08.415Z,1.80
2019-01-09T03:17:50.051Z,2.27
2019-01-09T03:20:31.363Z,2.20
2019-01-09T03:23:12.092Z,2.60
2019-01-09T03:25:52.927Z,1.90
2019-01-09T03:28:35.223Z,2.07
2019-01-09T03:31:15.833Z,2.23
2019-01-09T03:33:56.595Z,2.23
2019-01-09T03:36:37.978Z,1.93
2019-01-09T03:39:19.423Z,2.27
2019-01-09T03:42:01.014Z,2.57
2019-01-09T03:44:42.731Z,2.50
2019-01-09T03:47:22.538Z,2.37
2019-01-09T03:50:04.103Z,1.90
2019-01-09T03:52:44.981Z,2.27
2019-01-09T03:55:26.373Z,2.67
2019-01-09T03:58:07.938Z,2.77
2019-01-09T04:00:49.495Z,2.10
2019-01-09T04:03:31.200Z,2.80
2019-01-09T04:06:12.040Z,2.80
2019-01-09T04:08:53.686Z,2.97
2019-01-09T04:11:34.878Z,2.20
2019-01-09T04:14:16.285Z,2.30
2019-01-09T04:16:57.715Z,2.30
2019-01-09T04:19:39.014Z,2.70
2019-01-09T04:22:20.687Z,2.10
2019-01-09T04:25:01.630Z,2.30
2019-01-09T04:30:21.311Z,3.03
2019-01-09T04:33:02.785Z,2.87
2019-01-09T04:35:44.401Z,1.97
2019-01-09T04:38:25.191Z,2.17
2019-01-09T04:41:05.976Z,1.73
2019-01-09T04:46:31.749Z,1.50
2019-01-09T04:49:13.183Z,2.00
2019-01-09T04:51:54.787Z,1.70
2019-01-09T04:54:36.346Z,2.13
2019-01-09T04:57:17.078Z,2.63
2019-01-09T04:59:58.694Z,2.50
2019-01-09T05:02:40.410Z,2.10
2019-01-09T05:05:20.977Z,1.90
2019-01-09T05:08:02.572Z,2.47
2019-01-09T05:10:44.093Z,1.80
2019-01-09T05:13:24.785Z,1.70
2019-01-09T05:16:07.619Z,1.80
2019-01-09T05:18:49.858Z,2.13
2019-01-09T05:21:30.636Z,2.00
2019-01-09T05:24:11.335Z,2.20
2019-01-09T05:26:52.888Z,2.13
2019-01-09T05:29:34.019Z,1.97
2019-01-09T05:32:15.419Z,2.30
2019-01-09T05:34:56.953Z,2.30
2019-01-09T05:37:38.631Z,2.40
2019-01-09T05:40:20.123Z,2.23
2019-01-09T05:43:01.386Z,2.30
2019-01-09T05:45:42.059Z,2.17
2019-01-09T05:48:23.508Z,2.57
2019-01-09T05:51:04.587Z,2.23
2019-01-09T05:53:46.093Z,2.10
2019-01-09T05:56:27.488Z,2.20
2019-01-09T05:59:09.038Z,2.40
2019-01-09T06:01:49.713Z,2.40
2019-01-09T06:04:30.531Z,2.17
2019-01-09T06:07:18.313Z,2.10
2019-01-09T06:09:53.772Z,2.47
2019-01-09T06:12:35.446Z,2.30
2019-01-09T06:15:16.191Z,2.20
2019-01-09T06:17:56.930Z,2.57
2019-01-09T06:20:37.878Z,2.67
2019-01-09T06:23:19.986Z,2.43
2019-01-09T06:26:00.960Z,2.77
2019-01-09T06:28:42.495Z,2.50
2019-01-09T06:31:23.266Z,3.07
2019-01-09T06:34:04.352Z,2.47
2019-01-09T06:36:45.774Z,3.67
2019-01-09T06:39:27.352Z,3.77
2019-01-09T06:42:08.845Z,3.57
2019-01-09T06:44:57.012Z,3.37
2019-01-09T06:47:37.759Z,3.37
2019-01-09T06:50:18.599Z,2.50
2019-01-09T06:52:59.784Z,2.40
2019-01-09T06:55:40.663Z,2.33
2019-01-09T06:58:21.364Z,2.50
2019-01-09T07:01:03.582Z,2.47
2019-01-09T07:03:44.561Z,2.77
2019-01-09T07:06:26.158Z,3.10
2019-01-09T07:09:15.601Z,3.13
2019-01-09T07:11:57.171Z,21.37
2019-01-09T07:14:38.218Z,3.53
2019-01-09T07:17:27.255Z,3.00
2019-01-09T07:20:27.123Z,2.97
2019-01-09T07:23:15.794Z,3.73
2019-01-09T07:25:57.131Z,3.73
2019-01-09T07:28:38.747Z,3.50
2019-01-09T07:31:20.392Z,3.13
2019-01-09T07:34:02.091Z,2.80
2019-01-09T07:36:43.413Z,3.67
2019-01-09T07:39:25.755Z,3.50
2019-01-09T07:42:06.393Z,4.17
2019-01-09T07:44:48.302Z,2.70
2019-01-09T07:47:29.545Z,2.20
2019-01-09T07:49:59.130Z,2.97
2019-01-09T07:52:47.708Z,3.60
2019-01-09T07:55:29.290Z,2.93
2019-01-09T07:58:10.819Z,2.90
2019-01-09T08:00:52.316Z,2.80
2019-01-09T08:03:32.978Z,3.60
2019-01-09T08:06:14.355Z,2.70
2019-01-09T08:08:43.854Z,2.10
2019-01-09T08:14:28.471Z,3.33
2019-01-09T08:17:09.564Z,3.10
2019-01-09T08:19:51.042Z,3.47
2019-01-09T08:22:32.644Z,2.77
2019-01-09T08:25:14.229Z,3.20
2019-01-09T08:27:55.659Z,3.23
2019-01-09T08:30:36.370Z,5.77
2019-01-09T08:33:17.240Z,3.00
2019-01-09T08:35:58.085Z,3.37
2019-01-09T08:38:38.944Z,3.10
2019-01-09T08:41:20.685Z,2.80
2019-01-09T08:44:01.368Z,2.70
2019-01-09T08:46:43.097Z,4.40
2019-01-09T08:49:24.589Z,3.33
2019-01-09T08:52:06.073Z,4.07
2019-01-09T08:54:47.574Z,3.77
2019-01-09T08:57:28.784Z,4.70
2019-01-09T09:00:10.397Z,3.63
2019-01-09T09:02:51.548Z,3.43
2019-01-09T09:05:32.657Z,4.73
2019-01-09T09:11:00.068Z,3.23
2019-01-09T09:13:48.908Z,3.27
2019-01-09T09:16:38.018Z,4.13
2019-01-09T09:19:26.646Z,3.73
2019-01-09T09:22:15.317Z,2.80
2019-01-09T09:25:04.054Z,2.17
2019-01-09T09:27:45.139Z,5.73
2019-01-09T09:30:26.418Z,3.83
2019-01-09T09:33:07.962Z,3.37
2019-01-09T09:35:49.283Z,3.30
2019-01-09T09:38:20.634Z,3.10
2019-01-09T09:41:28.190Z,2.30
2019-01-09T09:44:09.441Z,3.10
2019-01-09T09:46:50.967Z,2.77
2019-01-09T09:52:36.940Z,2.23
2019-01-09T09:55:18.304Z,2.70
2019-01-09T09:58:05.602Z,2.97
2019-01-09T10:00:43.162Z,2.70
2019-01-09T10:03:24.816Z,2.77
2019-01-09T10:06:06.327Z,2.90
2019-01-09T10:08:47.714Z,3.23
2019-01-09T10:11:29.097Z,3.33
2019-01-09T10:14:11.699Z,3.20
2019-01-09T10:16:52.599Z,3.23
2019-01-09T10:19:34.603Z,3.70
2019-01-09T10:22:15.831Z,3.80
2019-01-09T10:24:58.210Z,4.43
2019-01-09T10:27:40.214Z,3.20
2019-01-09T10:30:21.770Z,3.53
2019-01-09T10:33:03.374Z,3.50
2019-01-09T10:35:44.569Z,3.17
2019-01-09T10:38:25.579Z,4.07
2019-01-09T10:41:06.953Z,4.33
2019-01-09T10:43:48.723Z,3.80
2019-01-09T10:46:29.942Z,3.77
2019-01-09T10:49:11.601Z,3.93
2019-01-09T10:51:55.159Z,4.20
2019-01-09T10:54:36.674Z,3.20
2019-01-09T10:57:18.106Z,3.00
2019-01-09T10:59:59.395Z,3.53
2019-01-09T11:02:40.887Z,3.97
2019-01-09T11:08:08.078Z,3.90
2019-01-09T11:10:49.230Z,4.00
2019-01-09T11:13:30.538Z,4.63
2019-01-09T11:18:50.499Z,3.97
2019-01-09T11:21:32.837Z,3.73
2019-01-09T11:24:15.804Z,3.63
2019-01-09T11:26:58.445Z,2.37
2019-01-09T11:32:23.454Z,1.80
2019-01-09T11:35:04.707Z,2.10
2019-01-09T11:37:45.827Z,2.10
2019-01-09T11:40:27.637Z,2.03
2019-01-09T11:43:08.774Z,2.07
2019-01-09T11:45:51.246Z,1.87
2019-01-09T11:48:32.664Z,1.93
2019-01-09T11:51:13.931Z,1.93
2019-01-09T11:56:56.621Z,1.87
2019-01-09T11:59:38.105Z,2.40
2019-01-09T12:02:22.130Z,2.47
2019-01-09T12:05:02.549Z,2.97
2019-01-09T12:07:43.729Z,2.80
2019-01-09T12:10:29.866Z,2.53
2019-01-09T12:13:07.776Z,2.70
2019-01-09T12:15:49.258Z,2.37
2019-01-09T12:18:30.912Z,2.90
2019-01-09T12:21:16.634Z,2.90
2019-01-09T12:23:55.137Z,3.10
2019-01-09T12:26:36.597Z,2.47
2019-01-09T12:29:18.007Z,3.13
2019-01-09T12:31:59.640Z,2.97
2019-01-09T12:34:40.467Z,2.70
2019-01-09T12:37:22.301Z,2.80
2019-01-09T12:40:03.320Z,2.67
2019-01-09T12:42:44.688Z,3.23
2019-01-09T12:45:26.226Z,2.87
2019-01-09T12:48:07.520Z,3.30
2019-01-09T12:50:49.356Z,3.20
2019-01-09T12:53:34.349Z,2.70
2019-01-09T12:56:16.256Z,2.53
2019-01-09T12:58:57.496Z,2.67
2019-01-09T13:01:38.995Z,3.03
2019-01-09T13:04:20.531Z,3.47
2019-01-09T13:07:01.731Z,3.30
2019-01-09T13:09:43.402Z,2.93
2019-01-09T13:12:25.108Z,2.60
2019-01-09T13:15:06.855Z,3.33
2019-01-09T13:17:48.437Z,2.97
2019-01-09T13:20:30.103Z,3.23
2019-01-09T13:23:10.847Z,3.03
2019-01-09T13:25:52.532Z,3.17
2019-01-09T13:28:33.739Z,3.40
2019-01-09T13:31:15.177Z,2.73
2019-01-09T13:33:56.849Z,3.20
2019-01-09T13:36:38.453Z,3.10
2019-01-09T13:39:20.792Z,3.67
2019-01-09T13:44:52.770Z,4.17
2019-01-09T13:50:18.463Z,3.10
2019-01-09T13:53:00.110Z,2.87
2019-01-09T13:55:41.299Z,3.13
2019-01-09T13:58:23.164Z,3.47
2019-01-09T14:01:04.565Z,3.30
2019-01-09T14:03:45.794Z,3.10
2019-01-09T14:06:25.557Z,3.60
2019-01-09T14:11:50.292Z,4.10
2019-01-09T14:17:15.034Z,3.97
2019-01-09T14:19:56.465Z,4.17
2019-01-09T14:22:38.091Z,4.03
2019-01-09T14:25:20.810Z,3.20
2019-01-09T14:28:02.076Z,4.50
2019-01-09T14:30:43.701Z,3.67
2019-01-09T14:33:24.999Z,3.10
2019-01-09T14:36:05.982Z,3.20
2019-01-09T14:38:47.535Z,3.80
2019-01-09T14:41:29.086Z,3.00
2019-01-09T14:44:09.972Z,3.67
2019-01-09T14:46:51.153Z,6.07
2019-01-09T14:49:32.724Z,4.07
2019-01-09T14:52:14.527Z,3.60
2019-01-09T14:54:55.979Z,5.37
2019-01-09T15:00:26.165Z,3.60
2019-01-09T15:03:07.798Z,3.73
2019-01-09T15:05:49.426Z,3.63
2019-01-09T15:08:30.978Z,3.90
2019-01-09T15:11:14.093Z,3.60
2019-01-09T15:13:55.121Z,4.10
2019-01-09T15:16:36.723Z,4.10
2019-01-09T15:19:18.356Z,4.03
2019-01-09T15:22:00.895Z,3.93
2019-01-09T15:24:42.448Z,3.13
2019-01-09T15:27:23.696Z,3.40
2019-01-09T15:30:05.753Z,2.97
2019-01-09T15:32:46.950Z,4.10
2019-01-09T15:35:28.140Z,4.40
2019-01-09T15:38:09.843Z,3.73
2019-01-09T15:40:51.306Z,3.50
2019-01-09T15:43:32.875Z,3.83
2019-01-09T15:46:13.939Z,2.63
2019-01-09T15:48:54.692Z,3.17
2019-01-09T15:51:35.947Z,3.73
2019-01-09T15:54:17.056Z,3.20
2019-01-09T15:56:58.576Z,3.53
2019-01-09T15:59:40.013Z,2.97
2019-01-09T16:02:21.372Z,3.10
2019-01-09T16:05:02.095Z,3.53
2019-01-09T16:07:43.680Z,3.17
2019-01-09T16:10:25.217Z,3.80
2019-01-09T16:13:06.609Z,3.40
2019-01-09T16:15:47.865Z,4.10
2019-01-09T16:18:29.452Z,2.80
2019-01-09T16:21:11.077Z,3.00
2019-01-09T16:23:52.752Z,3.27
2019-01-09T16:26:34.568Z,3.23
2019-01-09T16:29:15.783Z,3.83
2019-01-09T16:31:57.361Z,4.53
2019-01-09T16:34:38.341Z,3.50
2019-01-09T16:37:20.006Z,3.13
2019-01-09T16:42:51.564Z,4.00
2019-01-09T16:45:33.488Z,3.70
2019-01-09T16:48:14.827Z,3.73
2019-01-09T16:50:56.271Z,3.50
2019-01-09T16:53:37.513Z,3.90
2019-01-09T16:56:20.037Z,4.03
2019-01-09T16:59:01.382Z,4.20
2019-01-09T17:01:43.157Z,5.47
2019-01-09T17:04:24.810Z,3.90
2019-01-09T17:07:06.429Z,3.80
2019-01-09T17:09:48.063Z,3.77
2019-01-09T17:12:31.667Z,4.13
2019-01-09T17:15:12.852Z,3.70
2019-01-09T17:17:54.224Z,4.03
2019-01-09T17:20:37.863Z,3.50
2019-01-09T17:23:19.291Z,3.07
2019-01-09T17:26:00.075Z,3.60
2019-01-09T17:28:41.710Z,4.90
2019-01-09T17:31:22.872Z,3.50
2019-01-09T17:34:03.841Z,4.20
2019-01-09T17:36:44.458Z,5.63
2019-01-09T17:39:25.999Z,3.77
2019-01-09T17:42:07.125Z,4.50
2019-01-09T17:44:48.408Z,4.63
2019-01-09T17:47:30.091Z,4.57
2019-01-09T17:52:49.981Z,5.43
2019-01-09T17:55:31.404Z,5.30
2019-01-09T17:58:12.889Z,6.00
2019-01-09T18:00:54.164Z,8.90
2019-01-09T18:03:35.691Z,6.07
2019-01-09T18:06:17.280Z,12.77
2019-01-09T18:08:58.828Z,9.57
2019-01-09T18:11:41.011Z,7.97
2019-01-09T18:14:22.330Z,6.30
2019-01-09T18:17:03.288Z,4.90
2019-01-09T18:19:44.678Z,3.43
2019-01-09T18:22:26.256Z,3.63
2019-01-09T18:25:07.116Z,3.50
2019-01-09T18:27:48.019Z,2.90
2019-01-09T18:30:29.801Z,3.73
2019-01-09T18:33:10.968Z,3.27
2019-01-09T18:35:52.502Z,3.23
2019-01-09T18:38:34.977Z,3.10
2019-01-09T18:41:16.567Z,3.60
2019-01-09T18:43:58.221Z,3.87
2019-01-09T18:46:38.943Z,6.43
2019-01-09T18:49:20.475Z,4.53
2019-01-09T18:52:02.108Z,4.93
2019-01-09T18:54:43.657Z,4.30
2019-01-09T18:57:24.804Z,7.10
2019-01-09T19:00:06.481Z,6.70
2019-01-09T19:02:47.595Z,16.47
2019-01-09T19:05:29.282Z,15.13
2019-01-09T19:08:10.523Z,14.60
2019-01-09T19:10:52.163Z,9.50
2019-01-09T19:13:33.759Z,7.43
2019-01-09T19:16:14.462Z,6.37
2019-01-09T19:18:55.412Z,7.00
2019-01-09T19:21:36.837Z,6.40
2019-01-09T19:24:18.033Z,7.37
2019-01-09T19:26:58.966Z,9.60
2019-01-09T19:29:40.291Z,8.10
2019-01-09T19:32:21.788Z,8.97
2019-01-09T19:34:51.244Z,8.53
2019-01-09T19:37:39.825Z,8.77
2019-01-09T19:40:28.415Z,8.63
2019-01-09T19:43:10.363Z,9.10
2019-01-09T19:45:51.736Z,7.40
2019-01-09T19:48:33.268Z,7.57
2019-01-09T19:51:17.862Z,6.03
2019-01-09T19:53:57.523Z,6.07
2019-01-09T19:56:38.779Z,5.47
2019-01-09T19:59:20.003Z,4.93
2019-01-09T20:02:01.422Z,4.60
2019-01-09T20:04:43.186Z,4.97
2019-01-09T20:07:24.134Z,5.20
2019-01-09T20:10:05.997Z,4.10
2019-01-09T20:12:46.802Z,4.60
2019-01-09T20:15:28.330Z,5.63
2019-01-09T20:18:10.144Z,4.70
2019-01-09T20:20:52.101Z,4.13
2019-01-09T20:23:32.813Z,5.00
2019-01-09T20:26:13.762Z,5.03
2019-01-09T20:28:55.116Z,4.73
2019-01-09T20:31:36.613Z,4.53
2019-01-09T20:34:17.317Z,5.40
2019-01-09T20:36:58.849Z,4.40
2019-01-09T20:39:39.960Z,4.57
2019-01-09T20:42:21.334Z,5.50
2019-01-09T20:45:02.090Z,4.07
2019-01-09T20:47:43.077Z,4.17
2019-01-09T20:50:23.792Z,4.70
2019-01-09T20:53:05.162Z,4.63
2019-01-09T20:55:46.974Z,5.57
2019-01-09T20:58:27.759Z,4.40
2019-01-09T21:01:08.872Z,5.43
2019-01-09T21:03:50.449Z,5.00
2019-01-09T21:06:31.500Z,5.47
2019-01-09T21:09:12.849Z,7.10
2019-01-09T21:11:53.674Z,6.47
2019-01-09T21:14:34.508Z,6.63
2019-01-09T21:17:15.178Z,9.70
2019-01-09T21:19:55.895Z,7.03
2019-01-09T21:22:36.665Z,6.13
2019-01-09T21:25:18.258Z,6.13
2019-01-09T21:30:38.775Z,5.70
2019-01-09T21:33:19.703Z,6.30
2019-01-09T21:36:01.381Z,6.13
2019-01-09T21:38:42.463Z,6.37
2019-01-09T21:41:24.335Z,6.53
2019-01-09T21:44:05.784Z,5.60
2019-01-09T21:46:47.436Z,5.63
2019-01-09T21:49:28.766Z,5.27
2019-01-09T21:52:10.689Z,4.87
2019-01-09T21:57:37.196Z,4.63
2019-01-09T22:00:17.925Z,5.50
2019-01-09T22:02:58.625Z,5.57
2019-01-09T22:05:40.233Z,4.87
2019-01-09T22:08:21.018Z,4.77
2019-01-09T22:11:01.787Z,4.87
2019-01-09T22:13:45.353Z,5.33
2019-01-09T22:16:26.466Z,4.47
2019-01-09T22:19:12.132Z,4.23
2019-01-09T22:21:50.235Z,4.20
2019-01-09T22:24:32.075Z,3.73
2019-01-09T22:27:13.486Z,3.90
2019-01-09T22:29:54.922Z,3.90
2019-01-09T22:32:36.548Z,3.50
2019-01-09T22:35:17.255Z,4.10
2019-01-09T22:37:58.407Z,4.53
2019-01-09T22:40:39.415Z,3.47
2019-01-09T22:43:20.805Z,4.00
2019-01-09T22:46:01.762Z,3.70
2019-01-09T22:48:43.150Z,3.80
2019-01-09T22:51:24.478Z,3.97
2019-01-09T22:54:05.920Z,3.73
2019-01-09T22:56:46.670Z,4.23
2019-01-09T22:59:27.590Z,3.90
2019-01-09T23:02:09.654Z,3.90
2019-01-09T23:04:50.610Z,4.93
2019-01-09T23:07:31.604Z,4.43
2019-01-09T23:10:12.833Z,4.03
2019-01-09T23:12:54.371Z,3.80
2019-01-09T23:15:35.088Z,4.47
2019-01-09T23:18:16.737Z,3.77
2019-01-09T23:20:57.977Z,4.20
2019-01-09T23:23:39.381Z,4.60
2019-01-09T23:26:20.543Z,3.47
2019-01-09T23:29:01.954Z,4.40
2019-01-09T23:31:43.438Z,4.00
2019-01-09T23:34:24.139Z,3.80
2019-01-09T23:37:05.837Z,3.73
2019-01-09T23:39:47.240Z,4.23
2019-01-09T23:42:30.528Z,4.20
2019-01-09T23:45:11.076Z,4.13
2019-01-09T23:47:52.597Z,4.13
2019-01-09T23:50:33.355Z,3.90
2019-01-09T23:53:15.018Z,3.60
2019-01-09T23:55:56.520Z,3.83
2019-01-09T23:58:37.878Z,3.20
